Terminal Aerodrome Forecast
Issued by NWS Denver/Boulder, CO

Home | Current Version | Previous Version | Text Only | Print | Product List | Glossary On
Versions: 1 2 3 4 5 6 7 8 9 10 11 12 13 14 15 16 17 18 19 20 21 22 23 24 25 26 27 28 29 30 31 32 33 34 35 36 37 38 39 40 41 42 43 44 45 46 47 48 49 50
000
FTUS45 KBOU 232012 AAA
TAFDEN
TAF AMD
KDEN 232012Z 2320/2424 05015KT 5SM -SN BR BKN010 OVC020
      TEMPO 2320/2322 2SM -SN BR BKN008
     FM232200 02014KT 2SM -SN BR SCT004 BKN010 OVC020
      TEMPO 2322/2401 1SM -SN BR BKN004
     FM240100 01015KT 3SM -SN BR SCT008 BKN012 OVC020
      TEMPO 2401/2405 1SM -SN BR BKN005
     FM240600 36010KT 4SM -SN BR BKN005
     FM241200 34009KT P6SM VCSH SCT005 BKN012
     FM242200 06010KT P6SM SCT010 BKN040=

USA.gov is the U.S. government's official web portal to all federal, state and local government web resources and services.